Time;durP1;ratioP1;P1;durP2;ratioP2;P2;SDS_P1;SDS_P2;PMS_P1;PMS_P2;Temp;Humidity;BMP_temperature;BMP_pressure;BME280_temperature;BME280_humidity;BME280_pressure;Samples;Min_cycle;Max_cycle;Signal;HPM_P1;HPM_P2
2023/07/09 00:01:52;;;;;;;14.63;12.07;;;25.70;99.90;;;;;;5093559;28;20027;-71
2023/07/09 00:04:18;;;;;;;16.27;12.18;;;25.70;99.90;;;;;;5083502;28;20073;-71
2023/07/09 00:06:44;;;;;;;14.02;11.40;;;25.70;99.90;;;;;;5084824;28;20521;-71
2023/07/09 00:09:18;;;;;;;15.07;11.05;;;25.60;99.90;;;;;;5085452;28;20028;-72
2023/07/09 00:11:44;;;;;;;14.48;12.10;;;25.50;99.90;;;;;;5083568;28;20044;-71
2023/07/09 00:14:12;;;;;;;14.40;12.18;;;25.50;99.90;;;;;;5080711;28;20024;-71
2023/07/09 00:16:39;;;;;;;14.60;12.18;;;25.50;99.90;;;;;;5081319;28;20020;-71
2023/07/09 00:19:18;;;;;;;15.10;12.27;;;25.40;99.90;;;;;;5087970;28;20073;-71
2023/07/09 00:21:45;;;;;;;15.52;11.80;;;25.40;99.90;;;;;;5090623;28;20391;-71
2023/07/09 00:24:12;;;;;;;13.02;11.40;;;25.40;99.90;;;;;;5080040;28;20031;-71
2023/07/09 00:26:38;;;;;;;16.15;12.65;;;25.40;99.90;;;;;;5086338;28;20032;-72
2023/07/09 00:29:04;;;;;;;16.38;12.10;;;25.40;99.90;;;;;;5081880;28;20516;-72
2023/07/09 00:31:30;;;;;;;15.18;12.10;;;25.30;99.90;;;;;;5083094;28;20028;-71
2023/07/09 00:33:56;;;;;;;14.82;12.27;;;25.20;99.90;;;;;;5079181;28;20027;-71
2023/07/09 00:36:31;;;;;;;18.50;13.57;;;25.10;99.90;;;;;;5083482;28;20451;-72
2023/07/09 00:38:59;;;;;;;18.63;12.32;;;24.90;99.90;;;;;;5085217;28;20673;-71
2023/07/09 00:41:25;;;;;;;15.02;12.25;;;24.90;99.90;;;;;;5080850;28;20078;-71
2023/07/09 00:43:51;;;;;;;13.93;12.43;;;24.90;99.90;;;;;;5087952;28;20094;-71
2023/07/09 00:46:22;;;;;;;15.40;12.73;;;24.90;99.90;;;;;;5084631;28;20462;-71
2023/07/09 00:48:52;;;;;;;16.25;13.40;;;24.90;99.90;;;;;;5083737;28;20024;-72
2023/07/09 00:51:21;;;;;;;13.40;11.80;;;24.90;99.90;;;;;;5083053;28;20077;-71
2023/07/09 00:53:51;;;;;;;13.45;11.90;;;24.90;99.90;;;;;;5082429;28;20073;-71
2023/07/09 00:56:25;;;;;;;14.70;12.68;;;24.90;99.90;;;;;;5078438;28;20380;-71
2023/07/09 00:58:52;;;;;;;14.93;12.40;;;24.90;99.90;;;;;;5080763;28;20509;-71
2023/07/09 01:01:19;;;;;;;15.75;13.32;;;24.80;99.90;;;;;;5080746;28;20028;-70
2023/07/09 01:03:49;;;;;;;18.17;13.38;;;24.70;99.90;;;;;;5082912;28;20036;-71
2023/07/09 01:06:19;;;;;;;20.23;13.45;;;24.70;99.90;;;;;;5078007;28;20016;-71
2023/07/09 01:08:45;;;;;;;15.20;12.95;;;24.70;99.90;;;;;;5079997;28;20125;-71
2023/07/09 01:11:21;;;;;;;15.88;13.50;;;24.70;99.90;;;;;;5079170;28;20442;-71
2023/07/09 01:13:56;;;;;;;16.10;13.98;;;24.60;99.90;;;;;;5084756;28;20027;-71
2023/07/09 01:16:25;;;;;;;19.25;13.90;;;24.50;99.90;;;;;;5082795;28;20112;-71
2023/07/09 01:18:51;;;;;;;17.73;13.60;;;24.50;99.90;;;;;;5081285;28;20013;-71
2023/07/09 01:21:17;;;;;;;16.40;13.45;;;24.50;99.90;;;;;;5084934;28;20031;-71
2023/07/09 01:23:45;;;;;;;16.55;12.88;;;24.50;99.90;;;;;;5084134;28;20028;-71
2023/07/09 01:26:13;;;;;;;14.00;12.52;;;24.50;99.90;;;;;;5081389;28;20066;-70
2023/07/09 01:28:43;;;;;;;13.98;12.38;;;24.50;99.90;;;;;;5082991;28;20028;-71
2023/07/09 01:31:13;;;;;;;15.02;13.13;;;24.50;99.90;;;;;;5081346;28;20406;-71
2023/07/09 01:33:39;;;;;;;15.88;12.40;;;24.50;99.90;;;;;;5080825;28;20024;-71
2023/07/09 01:36:14;;;;;;;15.32;13.38;;;24.50;99.90;;;;;;5080109;28;20047;-71
2023/07/09 01:38:41;;;;;;;13.52;12.05;;;24.50;99.90;;;;;;5082221;28;20100;-71
2023/07/09 01:41:07;;;;;;;16.70;11.80;;;24.50;99.90;;;;;;5081578;28;20028;-71
2023/07/09 01:43:33;;;;;;;12.35;10.48;;;24.50;99.90;;;;;;5078018;28;20036;-71
2023/07/09 01:45:59;;;;;;;15.73;11.45;;;24.50;99.90;;;;;;5080909;28;20115;-71
2023/07/09 01:48:26;;;;;;;14.52;13.02;;;24.50;99.90;;;;;;5084754;28;20535;-71
2023/07/09 01:50:53;;;;;;;16.27;13.52;;;24.50;99.90;;;;;;5077313;28;20009;-71
2023/07/09 01:53:23;;;;;;;16.63;13.18;;;24.50;99.90;;;;;;5081379;28;20028;-71
2023/07/09 01:55:50;;;;;;;13.95;12.18;;;24.50;99.90;;;;;;5079718;28;20020;-71
2023/07/09 01:58:16;;;;;;;14.77;12.70;;;24.50;99.90;;;;;;5078885;28;20059;-71
2023/07/09 02:00:44;;;;;;;14.43;13.00;;;24.40;99.90;;;;;;5083583;28;20039;-71
2023/07/09 02:03:10;;;;;;;16.00;12.88;;;24.40;99.90;;;;;;5087257;28;20105;-71
2023/07/09 02:05:37;;;;;;;15.52;13.82;;;24.40;99.90;;;;;;5088017;28;20024;-71
2023/07/09 02:08:03;;;;;;;17.33;13.90;;;24.40;99.90;;;;;;5090939;28;20384;-71
2023/07/09 02:10:29;;;;;;;13.90;12.50;;;24.40;99.90;;;;;;5086165;28;20085;-71
2023/07/09 02:12:54;;;;;;;13.50;12.20;;;24.40;99.90;;;;;;5084262;28;20119;-71
2023/07/09 02:15:20;;;;;;;15.88;11.77;;;24.40;99.90;;;;;;5090405;28;20028;-71
2023/07/09 02:17:46;;;;;;;14.75;11.77;;;24.40;99.90;;;;;;5086843;28;20035;-71
2023/07/09 02:20:13;;;;;;;16.20;12.93;;;24.30;99.90;;;;;;5085112;28;20496;-71
2023/07/09 02:22:40;;;;;;;17.27;13.13;;;24.30;99.90;;;;;;5083298;28;20081;-71
2023/07/09 02:25:07;;;;;;;16.55;13.07;;;24.30;99.90;;;;;;5087407;28;20020;-71
2023/07/09 02:27:33;;;;;;;16.85;14.05;;;24.30;99.90;;;;;;5084984;28;20036;-71
2023/07/09 02:29:59;;;;;;;16.35;13.30;;;24.30;99.90;;;;;;5077001;28;20070;-71
2023/07/09 02:32:27;;;;;;;15.75;13.18;;;24.30;99.90;;;;;;5084526;28;20100;-71
2023/07/09 02:34:54;;;;;;;20.02;14.00;;;24.20;99.90;;;;;;5081047;28;20083;-71
2023/07/09 02:37:25;;;;;;;19.67;14.43;;;24.20;99.90;;;;;;5081135;28;20035;-71
2023/07/09 02:39:51;;;;;;;16.38;14.23;;;24.20;99.90;;;;;;5079316;28;20054;-71
2023/07/09 02:42:19;;;;;;;17.23;13.70;;;24.00;99.90;;;;;;5083218;28;20025;-71
2023/07/09 02:44:45;;;;;;;16.02;13.07;;;23.90;99.90;;;;;;5084843;28;20378;-71
2023/07/09 02:47:12;;;;;;;15.48;13.75;;;23.90;99.90;;;;;;5085474;28;20047;-71
2023/07/09 02:49:38;;;;;;;15.88;13.30;;;23.90;99.90;;;;;;5084182;28;20111;-71
2023/07/09 02:52:05;;;;;;;18.88;14.50;;;23.90;99.90;;;;;;5083786;28;20119;-71
2023/07/09 02:54:31;;;;;;;19.45;15.02;;;23.90;99.90;;;;;;5087696;28;20035;-71
2023/07/09 02:56:57;;;;;;;17.30;13.73;;;23.90;99.90;;;;;;5083681;28;20455;-71
2023/07/09 02:59:22;;;;;;;16.95;14.18;;;23.90;99.90;;;;;;5079916;28;20066;-72
2023/07/09 03:01:49;;;;;;;19.67;15.27;;;23.90;99.90;;;;;;5088886;28;20048;-71
2023/07/09 03:04:15;;;;;;;18.75;15.88;;;23.90;99.90;;;;;;5083039;28;20490;-71
2023/07/09 03:06:41;;;;;;;15.82;14.15;;;23.90;99.90;;;;;;5081454;28;20606;-71
2023/07/09 03:09:07;;;;;;;22.73;16.08;;;23.90;99.90;;;;;;5087391;28;20056;-71
2023/07/09 03:11:34;;;;;;;20.65;16.38;;;23.90;99.90;;;;;;5084069;28;20346;-71
2023/07/09 03:14:01;;;;;;;18.38;15.90;;;23.90;99.90;;;;;;5082519;28;20023;-71
2023/07/09 03:16:28;;;;;;;18.83;15.27;;;23.80;99.90;;;;;;5086163;28;20381;-71
2023/07/09 03:18:54;;;;;;;20.08;17.05;;;23.80;99.90;;;;;;5083274;28;20089;-71
2023/07/09 03:21:21;;;;;;;18.83;16.42;;;23.80;99.90;;;;;;5081546;28;20100;-71
2023/07/09 03:23:47;;;;;;;26.35;17.20;;;23.80;99.90;;;;;;5084753;28;20389;-71
2023/07/09 03:26:13;;;;;;;22.63;17.35;;;23.80;99.90;;;;;;5088250;28;20020;-71
2023/07/09 03:28:38;;;;;;;22.27;17.40;;;23.70;99.90;;;;;;5082348;28;20028;-71
2023/07/09 03:31:04;;;;;;;18.98;15.98;;;23.70;99.90;;;;;;5082416;28;20078;-71
2023/07/09 03:33:30;;;;;;;23.70;17.25;;;23.70;99.90;;;;;;5084168;28;20044;-71
2023/07/09 03:35:55;;;;;;;20.90;17.77;;;23.70;99.90;;;;;;5080289;28;20036;-71
2023/07/09 03:38:21;;;;;;;19.40;16.80;;;23.60;99.90;;;;;;5082839;28;20163;-71
2023/07/09 03:40:54;;;;;;;18.52;16.52;;;23.60;99.90;;;;;;5081767;28;20032;-71
2023/07/09 03:43:20;;;;;;;17.05;14.55;;;23.60;99.90;;;;;;5088566;28;20583;-71
2023/07/09 03:45:46;;;;;;;17.85;15.88;;;23.50;99.90;;;;;;5083371;28;20111;-71
2023/07/09 03:48:13;;;;;;;20.00;17.15;;;23.40;99.90;;;;;;5084800;28;20032;-71
2023/07/09 03:50:38;;;;;;;20.77;17.95;;;23.40;99.90;;;;;;5081769;28;20103;-71
2023/07/09 03:53:05;;;;;;;21.90;17.48;;;23.40;99.90;;;;;;5082594;28;20143;-71
2023/07/09 03:55:31;;;;;;;23.08;17.80;;;23.40;99.90;;;;;;5083730;28;20019;-71
2023/07/09 03:57:57;;;;;;;21.70;17.85;;;23.30;99.90;;;;;;5077142;28;20028;-71
2023/07/09 04:00:27;;;;;;;21.83;17.92;;;23.40;99.90;;;;;;5083479;28;20366;-71
2023/07/09 04:02:53;;;;;;;18.63;16.25;;;23.40;99.90;;;;;;5082940;28;20801;-71
2023/07/09 04:05:18;;;;;;;17.73;15.20;;;23.40;99.90;;;;;;5083301;28;20024;-71
2023/07/09 04:07:44;;;;;;;19.35;16.08;;;23.40;99.90;;;;;;5079384;28;20107;-71
2023/07/09 04:10:10;;;;;;;20.98;16.67;;;23.40;99.90;;;;;;5082281;28;20102;-71
2023/07/09 04:12:36;;;;;;;19.08;15.85;;;23.40;99.90;;;;;;5083275;28;20468;-71
2023/07/09 04:15:04;;;;;;;20.48;16.58;;;23.40;99.90;;;;;;5082010;28;20044;-71
2023/07/09 04:17:30;;;;;;;21.80;16.40;;;23.40;99.90;;;;;;5083352;28;20025;-71
2023/07/09 04:19:55;;;;;;;18.25;15.50;;;23.40;99.90;;;;;;5088013;28;20112;-71
2023/07/09 04:22:21;;;;;;;19.58;16.30;;;23.40;99.90;;;;;;5086489;28;20465;-71
2023/07/09 04:24:47;;;;;;;19.67;16.85;;;23.40;99.90;;;;;;5083201;28;20028;-71
2023/07/09 04:27:13;;;;;;;20.00;17.55;;;23.40;99.90;;;;;;5078785;28;20044;-71
2023/07/09 04:29:40;;;;;;;19.40;17.25;;;23.40;99.90;;;;;;5080158;28;20028;-71
2023/07/09 04:32:08;;;;;;;19.55;17.48;;;23.40;99.90;;;;;;5080379;28;20063;-71
2023/07/09 04:34:33;;;;;;;25.63;17.45;;;23.40;99.90;;;;;;5083785;28;20028;-71
2023/07/09 04:36:59;;;;;;;22.08;16.42;;;23.40;99.90;;;;;;5079150;28;20020;-71
2023/07/09 04:39:25;;;;;;;18.58;15.13;;;23.30;99.90;;;;;;5084383;28;20028;-71
2023/07/09 04:41:50;;;;;;;19.15;15.43;;;23.40;99.90;;;;;;5082235;28;20020;-71
2023/07/09 04:44:16;;;;;;;21.27;16.70;;;23.40;99.90;;;;;;5082972;28;20486;-71
2023/07/09 04:46:42;;;;;;;18.13;15.65;;;23.40;99.90;;;;;;5079816;28;20494;-71
2023/07/09 04:49:08;;;;;;;20.10;15.15;;;23.50;99.90;;;;;;5080925;28;20035;-71
2023/07/09 04:51:34;;;;;;;18.30;15.02;;;23.50;99.90;;;;;;5081530;28;20099;-71
2023/07/09 04:54:03;;;;;;;20.20;15.02;;;23.50;99.90;;;;;;5082350;28;20112;-71
2023/07/09 04:56:30;;;;;;;17.90;14.25;;;23.60;99.90;;;;;;5080112;28;20032;-71
2023/07/09 04:58:56;;;;;;;17.38;15.43;;;23.60;99.90;;;;;;5076736;28;20434;-71
2023/07/09 05:01:22;;;;;;;18.85;14.73;;;23.60;99.90;;;;;;5082405;28;20103;-71
2023/07/09 05:03:47;;;;;;;19.77;14.10;;;23.60;99.90;;;;;;5087368;28;20171;-71
2023/07/09 05:06:14;;;;;;;17.05;15.23;;;23.50;99.90;;;;;;5079389;28;20111;-71
2023/07/09 05:08:42;;;;;;;17.73;14.40;;;23.60;99.90;;;;;;5079990;28;20465;-71
2023/07/09 05:11:08;;;;;;;16.83;13.80;;;23.50;99.90;;;;;;5087131;28;20027;-71
2023/07/09 05:13:34;;;;;;;16.63;14.10;;;23.60;99.90;;;;;;5079115;28;20020;-71
2023/07/09 05:15:59;;;;;;;14.85;12.57;;;23.60;99.90;;;;;;5089505;28;20028;-71
2023/07/09 05:18:25;;;;;;;17.40;13.63;;;23.50;99.90;;;;;;5080450;28;20040;-71
2023/07/09 05:20:51;;;;;;;15.90;14.07;;;23.60;99.90;;;;;;5079569;28;20162;-71
2023/07/09 05:23:17;;;;;;;18.33;13.85;;;23.70;99.90;;;;;;5080712;28;20520;-71
2023/07/09 05:25:42;;;;;;;16.42;12.90;;;23.70;99.90;;;;;;5087727;28;20170;-71
2023/07/09 05:28:08;;;;;;;14.48;12.38;;;23.70;99.90;;;;;;5081464;28;20050;-71
2023/07/09 05:30:33;;;;;;;18.95;15.23;;;23.70;99.90;;;;;;5074984;28;20040;-71
2023/07/09 05:32:59;;;;;;;16.00;12.65;;;23.80;99.90;;;;;;5080233;28;20024;-71
2023/07/09 05:35:26;;;;;;;15.95;13.52;;;23.80;99.90;;;;;;5082362;28;20467;-71
2023/07/09 05:37:53;;;;;;;14.82;12.48;;;23.80;99.90;;;;;;5085558;28;20106;-71
2023/07/09 05:40:19;;;;;;;16.50;12.95;;;23.80;99.90;;;;;;5090967;28;20016;-71
2023/07/09 05:42:44;;;;;;;14.82;12.13;;;23.80;99.90;;;;;;5081344;28;20075;-70
2023/07/09 05:45:11;;;;;;;12.93;11.63;;;23.90;99.90;;;;;;5079840;28;20024;-71
2023/07/09 05:47:36;;;;;;;16.42;12.30;;;23.90;99.90;;;;;;5078249;28;20129;-71
2023/07/09 05:50:03;;;;;;;13.77;11.82;;;24.00;99.90;;;;;;5081589;28;20480;-71
2023/07/09 05:52:29;;;;;;;13.05;11.15;;;24.00;99.90;;;;;;5085634;28;20105;-71
2023/07/09 05:54:55;;;;;;;17.27;12.07;;;24.00;99.90;;;;;;5090850;28;20103;-71
2023/07/09 05:57:21;;;;;;;18.52;12.38;;;24.00;99.90;;;;;;5083942;28;20115;-71
2023/07/09 05:59:47;;;;;;;14.73;12.68;;;24.10;99.90;;;;;;5078533;28;20028;-71
2023/07/09 06:02:16;;;;;;;16.35;12.40;;;24.10;99.90;;;;;;5083952;28;20115;-71
2023/07/09 06:04:42;;;;;;;22.40;12.90;;;24.10;99.90;;;;;;5080552;28;20529;-71
2023/07/09 06:07:08;;;;;;;14.00;11.57;;;24.20;99.90;;;;;;5082326;28;20103;-71
2023/07/09 06:09:35;;;;;;;21.05;13.20;;;24.20;99.90;;;;;;5078576;28;20510;-71
2023/07/09 06:12:03;;;;;;;20.20;13.30;;;24.20;99.90;;;;;;5080352;28;20034;-71
2023/07/09 06:14:28;;;;;;;19.35;12.68;;;24.20;99.90;;;;;;5083472;28;20031;-71
2023/07/09 06:16:54;;;;;;;15.75;11.93;;;24.30;99.90;;;;;;5078639;28;20012;-71
2023/07/09 06:19:19;;;;;;;15.60;12.60;;;24.30;99.90;;;;;;5077997;28;20025;-71
2023/07/09 06:21:45;;;;;;;16.20;11.82;;;24.30;99.90;;;;;;5080422;28;20026;-71
2023/07/09 06:24:11;;;;;;;16.98;12.18;;;24.30;99.90;;;;;;5076863;28;20158;-71
2023/07/09 06:26:37;;;;;;;15.20;12.27;;;24.40;99.90;;;;;;5085107;28;20497;-71
2023/07/09 06:29:03;;;;;;;16.67;11.18;;;24.50;99.90;;;;;;5083266;28;20047;-71
2023/07/09 06:31:29;;;;;;;16.08;12.32;;;24.60;99.90;;;;;;5080235;28;20008;-72
2023/07/09 06:33:55;;;;;;;18.20;12.52;;;24.60;99.90;;;;;;5079990;28;20391;-71
2023/07/09 06:36:20;;;;;;;15.95;10.90;;;24.70;99.90;;;;;;5083103;28;20404;-71
2023/07/09 06:38:46;;;;;;;16.95;11.43;;;24.80;99.90;;;;;;5079238;28;20375;-71
2023/07/09 06:41:13;;;;;;;16.52;11.93;;;24.80;99.90;;;;;;5076675;28;20464;-71
2023/07/09 06:43:39;;;;;;;14.52;11.15;;;24.90;99.90;;;;;;5078994;28;20040;-71
2023/07/09 06:46:07;;;;;;;15.30;10.65;;;25.00;99.90;;;;;;5083540;28;20074;-71
2023/07/09 06:48:33;;;;;;;14.00;10.98;;;25.00;99.90;;;;;;5082766;28;20042;-71
2023/07/09 06:50:59;;;;;;;14.55;10.57;;;25.10;99.90;;;;;;5082321;28;20021;-71
2023/07/09 06:53:27;;;;;;;14.07;9.82;;;25.20;99.90;;;;;;5088178;28;20067;-71
2023/07/09 06:55:55;;;;;;;15.70;9.90;;;25.30;99.90;;;;;;5081767;28;20529;-71
2023/07/09 06:58:22;;;;;;;14.65;10.27;;;25.50;99.90;;;;;;5086233;28;20476;-71
2023/07/09 07:00:50;;;;;;;13.18;10.45;;;25.60;99.90;;;;;;5080807;28;20495;-71
2023/07/09 07:03:16;;;;;;;15.05;10.27;;;25.80;99.90;;;;;;5084724;28;20036;-71
2023/07/09 07:05:46;;;;;;;13.85;9.68;;;25.80;99.90;;;;;;5081638;28;20034;-71
2023/07/09 07:08:15;;;;;;;14.63;10.13;;;25.90;99.90;;;;;;5086868;28;20024;-72
2023/07/09 07:10:41;;;;;;;16.85;10.70;;;26.10;99.90;;;;;;5082218;28;20087;-71
2023/07/09 07:13:06;;;;;;;15.27;10.07;;;26.30;99.90;;;;;;5084393;28;20384;-71
2023/07/09 07:15:32;;;;;;;16.60;10.77;;;26.60;99.90;;;;;;5082654;28;20535;-71
2023/07/09 07:17:58;;;;;;;15.38;11.27;;;26.60;99.90;;;;;;5082025;28;20046;-72
2023/07/09 07:20:24;;;;;;;14.40;10.70;;;26.60;99.90;;;;;;5088493;28;20032;-72
2023/07/09 07:22:49;;;;;;;16.60;10.07;;;26.70;99.90;;;;;;5088193;28;20035;-72
2023/07/09 07:25:15;;;;;;;14.27;10.80;;;26.70;99.90;;;;;;5083065;28;20048;-71
2023/07/09 07:27:41;;;;;;;11.75;9.20;;;26.90;99.90;;;;;;5084356;28;20035;-72
2023/07/09 07:30:08;;;;;;;14.75;10.20;;;26.90;99.90;;;;;;5080347;28;20037;-72
2023/07/09 07:32:36;;;;;;;16.27;10.10;;;27.00;99.90;;;;;;5083383;28;20096;-72
2023/07/09 07:35:02;;;;;;;15.13;8.98;;;27.30;99.90;;;;;;5082068;28;20032;-72
2023/07/09 07:37:28;;;;;;;11.70;9.27;;;27.40;99.90;;;;;;5083145;28;20027;-72
2023/07/09 07:39:53;;;;;;;16.35;11.95;;;27.40;99.90;;;;;;5084728;28;20369;-72
2023/07/09 07:42:19;;;;;;;11.88;8.43;;;27.50;99.90;;;;;;5081970;28;20028;-72
2023/07/09 07:44:45;;;;;;;13.50;9.23;;;27.70;99.90;;;;;;5083663;28;20051;-72
2023/07/09 07:47:11;;;;;;;11.77;9.98;;;27.70;99.90;;;;;;5081502;28;20618;-72
2023/07/09 07:49:37;;;;;;;10.02;7.93;;;27.80;99.90;;;;;;5081101;28;20028;-72
2023/07/09 07:52:03;;;;;;;10.13;8.77;;;27.90;99.90;;;;;;5081629;28;20622;-72
2023/07/09 07:54:31;;;;;;;13.32;10.02;;;28.10;99.90;;;;;;5080948;28;20127;-72
2023/07/09 07:56:57;;;;;;;9.90;8.90;;;28.30;99.90;;;;;;5086575;28;20051;-72
2023/07/09 07:59:24;;;;;;;15.85;9.32;;;28.50;99.90;;;;;;5082735;28;20388;-72
2023/07/09 08:01:49;;;;;;;14.02;9.00;;;28.60;99.90;;;;;;5081745;28;20029;-72
2023/07/09 08:04:15;;;;;;;11.73;8.40;;;28.60;99.90;;;;;;5086838;28;20031;-72
2023/07/09 08:06:41;;;;;;;12.15;9.18;;;28.60;99.90;;;;;;5081326;28;20034;-72
2023/07/09 08:09:06;;;;;;;12.20;9.30;;;28.70;99.90;;;;;;5086371;28;20027;-72
2023/07/09 08:11:32;;;;;;;11.23;8.65;;;28.60;99.90;;;;;;5079124;28;20064;-72
2023/07/09 08:13:58;;;;;;;11.70;9.05;;;28.70;99.90;;;;;;5083959;28;20396;-72
2023/07/09 08:16:24;;;;;;;9.55;8.48;;;28.70;99.90;;;;;;5079255;28;20032;-71
2023/07/09 08:18:51;;;;;;;13.45;8.60;;;28.90;99.90;;;;;;5075536;28;20120;-72
2023/07/09 08:21:17;;;;;;;14.80;10.40;;;28.90;99.90;;;;;;5084202;28;20060;-72
2023/07/09 08:23:44;;;;;;;12.60;9.13;;;28.90;99.90;;;;;;5078996;28;20275;-73
2023/07/09 08:26:10;;;;;;;11.45;9.13;;;29.00;99.90;;;;;;5077125;28;20099;-72
2023/07/09 08:28:35;;;;;;;10.60;9.40;;;29.10;99.90;;;;;;5080627;28;20047;-71
2023/07/09 08:31:02;;;;;;;18.15;10.05;;;29.10;99.90;;;;;;5079733;28;20028;-72
2023/07/09 08:33:27;;;;;;;12.13;10.10;;;29.20;99.90;;;;;;5082468;28;20024;-72
2023/07/09 08:35:54;;;;;;;19.17;9.57;;;29.30;99.90;;;;;;5077183;28;20039;-72
2023/07/09 08:38:20;;;;;;;15.90;9.32;;;29.30;99.90;;;;;;5080711;28;20055;-72
2023/07/09 08:41:07;;;;;;;12.50;8.93;;;29.50;99.90;;;;;;5079718;28;20032;-72
2023/07/09 08:43:49;;;;;;;9.27;8.38;;;29.60;99.90;;;;;;5082493;28;20040;-71
2023/07/09 08:46:24;;;;;;;14.40;9.90;;;29.80;99.90;;;;;;5079856;28;20024;-72
2023/07/09 08:48:53;;;;;;;14.55;9.98;;;29.90;99.90;;;;;;5085261;28;20032;-72
2023/07/09 08:51:35;;;;;;;12.00;8.80;;;29.90;99.90;;;;;;5087281;28;20047;-72
2023/07/09 08:54:01;;;;;;;11.82;8.50;;;30.10;99.90;;;;;;5087913;28;20069;-71
2023/07/09 08:56:32;;;;;;;12.00;7.93;;;30.30;99.90;;;;;;5082885;28;20028;-72
2023/07/09 08:59:01;;;;;;;12.07;8.13;;;30.40;99.90;;;;;;5081334;28;20039;-71
2023/07/09 09:01:39;;;;;;;10.35;8.55;;;30.50;99.90;;;;;;5080489;28;20024;-71
2023/07/09 09:04:27;;;;;;;12.50;8.32;;;30.70;99.90;;;;;;5082651;28;20177;-71
2023/07/09 09:06:59;;;;;;;10.65;7.82;;;30.90;99.90;;;;;;5080077;28;20044;-71
2023/07/09 09:09:37;;;;;;;12.77;6.97;;;31.10;99.90;;;;;;5079637;28;20095;-73
2023/07/09 09:12:18;;;;;;;11.00;7.20;;;31.30;99.90;;;;;;5081946;28;20028;-70
2023/07/09 09:14:49;;;;;;;9.07;8.13;;;31.40;99.90;;;;;;5081463;28;20085;-72
2023/07/09 09:17:19;;;;;;;12.73;8.23;;;31.50;99.90;;;;;;5085720;28;20028;-72
2023/07/09 09:19:50;;;;;;;11.05;7.57;;;31.60;99.90;;;;;;5078892;28;20036;-71
2023/07/09 09:22:21;;;;;;;10.30;7.47;;;31.50;99.90;;;;;;5083407;28;20031;-72
2023/07/09 09:25:13;;;;;;;8.93;7.40;;;31.70;99.90;;;;;;5080503;28;20024;-71
2023/07/09 09:27:39;;;;;;;17.30;7.97;;;31.90;99.90;;;;;;5081112;28;20100;-69
2023/07/09 09:30:11;;;;;;;12.68;7.88;;;32.10;99.90;;;;;;5081316;28;20385;-69
2023/07/09 09:32:44;;;;;;;10.40;6.70;;;32.30;99.90;;;;;;5076842;28;20048;-68
2023/07/09 09:35:19;;;;;;;11.95;7.25;;;32.20;99.90;;;;;;5073688;28;20017;-68
2023/07/09 09:37:52;;;;;;;9.75;6.75;;;32.10;99.90;;;;;;5078332;28;20023;-68
2023/07/09 09:40:18;;;;;;;;;;;32.30;99.90;;;;;;5084260;28;20480;-69
2023/07/09 09:42:43;;;;;;;11.55;6.97;;;32.30;99.90;;;;;;5079711;28;19928;-67
2023/07/09 09:45:15;;;;;;;8.00;6.65;;;32.50;99.90;;;;;;5076348;28;20376;-68
2023/07/09 09:47:40;;;;;;;9.35;7.45;;;32.70;99.90;;;;;;5077039;28;20028;-67
2023/07/09 09:50:06;;;;;;;7.70;6.82;;;32.60;99.90;;;;;;5076231;28;20023;-68
2023/07/09 09:52:34;;;;;;;9.00;7.53;;;32.50;99.90;;;;;;5078157;28;20039;-68
2023/07/09 09:55:11;;;;;;;8.93;6.68;;;32.70;99.90;;;;;;5079987;28;20112;-67
2023/07/09 09:57:37;;;;;;;11.10;7.15;;;32.90;99.90;;;;;;5082461;28;20024;-69
2023/07/09 10:00:08;;;;;;;8.65;6.70;;;33.00;99.90;;;;;;5077774;28;20040;-70
2023/07/09 10:02:42;;;;;;;8.95;7.25;;;33.20;99.90;;;;;;5079022;28;20064;-68
2023/07/09 10:05:13;;;;;;;9.50;6.70;;;33.30;99.90;;;;;;5080218;28;20039;-68
2023/07/09 10:08:02;;;;;;;10.00;6.75;;;33.40;99.90;;;;;;5081052;28;20407;-67
2023/07/09 10:10:32;;;;;;;11.15;6.95;;;33.40;99.90;;;;;;5086803;28;20028;-68
2023/07/09 10:13:32;;;;;;;8.93;6.72;;;33.30;99.90;;;;;;5086833;28;20024;-69
2023/07/09 10:15:58;;;;;;;7.68;6.25;;;33.30;99.90;;;;;;5078088;28;20052;-70
2023/07/09 10:18:50;;;;;;;8.52;6.30;;;33.30;99.90;;;;;;5080853;28;20021;-71
2023/07/09 10:21:33;;;;;;;;;;;33.30;99.90;;;;;;5090367;28;20114;-68
2023/07/09 10:24:22;;;;;;;12.52;6.53;;;33.30;99.90;;;;;;5079141;28;19916;-68
2023/07/09 10:27:03;;;;;;;8.32;6.63;;;33.60;99.90;;;;;;5083762;28;20048;-68
2023/07/09 10:30:07;;;;;;;10.65;6.32;;;33.70;99.90;;;;;;5082778;28;20161;-68
2023/07/09 10:32:45;;;;;;;11.05;6.43;;;33.50;99.90;;;;;;5054772;28;20033;-69
2023/07/09 10:35:38;;;;;;;11.15;6.60;;;33.60;99.90;;;;;;5076547;28;20039;-69
2023/07/09 10:38:16;;;;;;;10.80;6.28;;;33.70;99.90;;;;;;5086883;28;20059;-68
2023/07/09 10:40:49;;;;;;;7.13;5.65;;;33.90;99.90;;;;;;5083753;28;20054;-68
2023/07/09 10:43:37;;;;;;;7.60;6.78;;;34.10;99.90;;;;;;5087268;28;20059;-68
2023/07/09 10:46:11;;;;;;;6.90;5.38;;;34.30;99.90;;;;;;5088258;28;20050;-68
2023/07/09 10:48:46;;;;;;;6.85;6.18;;;34.60;99.90;;;;;;5091317;28;20036;-69
2023/07/09 10:51:21;;;;;;;11.25;6.68;;;34.70;99.90;;;;;;5079485;28;20496;-69
2023/07/09 10:54:14;;;;;;;7.72;5.40;;;34.70;99.90;;;;;;5089493;28;20295;-69
2023/07/09 10:56:40;;;;;;;8.35;5.47;;;34.80;99.90;;;;;;5079905;28;20117;-68
2023/07/09 10:59:46;;;;;;;8.55;5.97;;;34.80;99.90;;;;;;5084499;28;20552;-68
2023/07/09 11:02:27;;;;;;;7.25;6.18;;;34.80;99.90;;;;;;5063130;28;20135;-68
2023/07/09 11:04:58;;;;;;;7.07;6.40;;;34.90;99.90;;;;;;5089277;28;20505;-69
2023/07/09 11:07:40;;;;;;;7.93;6.10;;;34.80;99.90;;;;;;5083162;28;20024;-68
2023/07/09 11:10:27;;;;;;;;;;;34.70;99.90;;;;;;5083590;28;20040;-69
2023/07/09 11:13:01;;;;;;;5.93;5.32;;;34.60;99.90;;;;;;5084548;28;20451;-69
2023/07/09 11:15:36;;;;;;;11.50;5.30;;;34.70;99.90;;;;;;5081553;28;20020;-69
2023/07/09 11:18:05;;;;;;;8.15;5.47;;;34.80;99.90;;;;;;5083155;28;20520;-69
2023/07/09 11:20:35;;;;;;;6.25;5.00;;;34.70;98.50;;;;;;5082758;28;20073;-69
2023/07/09 11:23:20;;;;;;;9.25;5.40;;;34.80;99.90;;;;;;5079627;28;20036;-69
2023/07/09 11:26:10;;;;;;;6.35;4.90;;;34.70;99.10;;;;;;5080898;28;20100;-70
2023/07/09 11:28:38;;;;;;;5.88;4.93;;;34.70;98.90;;;;;;5084704;28;20040;-69
2023/07/09 11:31:24;;;;;;;8.38;5.10;;;34.60;98.60;;;;;;5084423;28;20048;-70
2023/07/09 11:34:01;;;;;;;8.02;5.20;;;34.30;98.10;;;;;;5085470;28;20388;-70
2023/07/09 11:36:29;;;;;;;6.78;5.43;;;34.20;99.90;;;;;;5082602;28;20111;-70
2023/07/09 11:38:55;;;;;;;6.03;5.38;;;34.10;99.90;;;;;;5082809;28;20024;-70
2023/07/09 11:41:39;;;;;;;9.40;5.80;;;34.10;99.70;;;;;;5078862;28;20028;-70
2023/07/09 11:44:21;;;;;;;9.43;5.40;;;34.20;99.90;;;;;;5075397;28;20868;-70
2023/07/09 11:47:05;;;;;;;;;;;34.10;99.90;;;;;;5083595;28;20016;-70
2023/07/09 11:49:40;;;;;;;7.75;5.60;;;34.10;99.90;;;;;;5087993;28;19912;-70
2023/07/09 11:52:09;;;;;;;7.15;5.97;;;34.00;99.90;;;;;;5079069;28;20168;-70
2023/07/09 11:54:37;;;;;;;11.20;6.60;;;34.00;99.90;;;;;;5077493;28;20024;-70
2023/07/09 11:57:03;;;;;;;8.90;5.95;;;34.00;99.90;;;;;;5077878;28;20025;-70
2023/07/09 11:59:29;;;;;;;8.95;6.22;;;33.90;99.90;;;;;;5078715;28;20020;-71
2023/07/09 12:02:00;;;;;;;8.38;6.35;;;33.90;99.90;;;;;;5084231;28;20028;-71
2023/07/09 12:04:33;;;;;;;9.07;5.28;;;33.90;99.90;;;;;;5082942;28;20039;-70
2023/07/09 12:07:01;;;;;;;5.78;5.22;;;33.90;99.90;;;;;;5079967;28;20480;-70
2023/07/09 12:09:39;;;;;;;7.07;5.65;;;34.00;99.90;;;;;;5084291;28;20024;-71
2023/07/09 12:12:16;;;;;;;9.90;5.93;;;33.90;99.90;;;;;;5080111;28;20054;-70
2023/07/09 12:14:41;;;;;;;6.88;5.78;;;33.90;99.90;;;;;;5082909;28;20028;-70
2023/07/09 12:17:08;;;;;;;7.80;6.15;;;33.90;99.90;;;;;;5086457;28;20107;-71
2023/07/09 12:19:34;;;;;;;8.95;5.90;;;33.90;99.90;;;;;;5081243;28;20032;-71
2023/07/09 12:22:00;;;;;;;7.78;6.03;;;33.70;99.90;;;;;;5082892;28;20035;-71
2023/07/09 12:24:28;;;;;;;8.93;6.38;;;33.70;99.90;;;;;;5079648;28;20038;-70
2023/07/09 12:26:55;;;;;;;12.35;6.47;;;33.50;99.90;;;;;;5084082;28;20023;-70
2023/07/09 12:29:25;;;;;;;8.35;6.13;;;33.40;99.90;;;;;;5075968;28;20036;-72
2023/07/09 12:31:51;;;;;;;13.60;7.50;;;33.30;99.90;;;;;;5047725;28;20028;-71
2023/07/09 12:34:17;;;;;;;8.68;6.88;;;33.20;99.90;;;;;;5095123;28;20028;-71
2023/07/09 12:36:47;;;;;;;8.32;6.18;;;33.00;99.90;;;;;;5101003;28;20097;-71
2023/07/09 12:39:17;;;;;;;11.93;6.32;;;32.90;99.90;;;;;;5085530;28;20111;-71
2023/07/09 12:41:45;;;;;;;9.68;6.28;;;32.80;99.90;;;;;;5091751;28;20031;-71
2023/07/09 12:44:16;;;;;;;7.22;6.53;;;32.70;99.90;;;;;;5092779;28;20040;-69